Time;durP1;ratioP1;P1;durP2;ratioP2;P2;SDS_P1;SDS_P2;PMS_P1;PMS_P2;Temp;Humidity;BMP_temperature;BMP_pressure;BME280_temperature;BME280_humidity;BME280_pressure;Samples;Min_cycle;Max_cycle;Signal;HPM_P1;HPM_P2
2023/06/13 00:00:49;;;;;;;10.07;4.18;;;;;;;;;;5094568;28;20286;-69
2023/06/13 00:03:19;;;;;;;9.65;4.00;;;;;;;;;;5077925;28;20044;-70
2023/06/13 00:05:46;;;;;;;6.93;3.78;;;;;;;;;;5095948;28;20059;-69
2023/06/13 00:08:21;;;;;;;8.15;3.63;;;;;;;;;;5094782;28;20067;-69
2023/06/13 00:10:50;;;;;;;11.50;4.22;;;;;;;;;;5079316;28;20366;-69
2023/06/13 00:13:16;;;;;;;11.23;4.15;;;;;;;;;;5095513;28;20131;-69
2023/06/13 00:15:50;;;;;;;9.35;3.95;;;;;;;;;;5094786;28;20040;-69
2023/06/13 00:18:17;;;;;;;12.15;4.10;;;;;;;;;;5095732;28;20393;-70
2023/06/13 00:20:44;;;;;;;10.68;4.10;;;;;;;;;;5095468;28;20374;-69
2023/06/13 00:23:10;;;;;;;9.88;3.92;;;;;;;;;;5094684;28;20401;-70
2023/06/13 00:25:36;;;;;;;8.80;4.18;;;;;;;;;;5060973;28;20098;-70
2023/06/13 00:28:02;;;;;;;8.10;4.07;;;;;;;;;;5094509;28;20139;-70
2023/06/13 00:30:28;;;;;;;11.02;4.32;;;;;;;;;;5077724;28;20290;-68
2023/06/13 00:32:57;;;;;;;7.28;3.97;;;;;;;;;;5078270;28;20048;-70
2023/06/13 00:35:23;;;;;;;7.50;4.30;;;;;;;;;;5078019;28;20063;-70
2023/06/13 00:37:50;;;;;;;9.73;4.45;;;;;;;;;;5095562;28;20386;-68
2023/06/13 00:40:18;;;;;;;11.07;4.82;;;;;;;;;;5094226;28;20058;-69
2023/06/13 00:42:44;;;;;;;10.60;4.35;;;;;;;;;;5094078;28;20474;-69
2023/06/13 00:45:26;;;;;;;10.70;4.90;;;;;;;;;;5094985;28;20479;-69
2023/06/13 00:48:02;;;;;;;9.07;4.22;;;;;;;;;;5094267;28;20386;-70
2023/06/13 00:50:31;;;;;;;13.57;4.70;;;;;;;;;;5095985;28;20481;-69
2023/06/13 00:52:58;;;;;;;13.52;4.63;;;;;;;;;;5077210;28;20478;-69
2023/06/13 00:55:26;;;;;;;10.35;4.70;;;;;;;;;;5094408;28;20062;-69
2023/06/13 00:57:56;;;;;;;9.40;4.80;;;;;;;;;;5077890;28;20043;-70
2023/06/13 01:00:26;;;;;;;13.25;5.40;;;;;;;;;;5093964;28;20123;-70
2023/06/13 01:02:58;;;;;;;12.70;4.68;;;;;;;;;;5093556;28;20100;-69
2023/06/13 01:05:28;;;;;;;9.95;5.05;;;;;;;;;;5093479;28;20087;-70
2023/06/13 01:08:01;;;;;;;11.32;5.00;;;;;;;;;;5076950;28;20090;-69
2023/06/13 01:10:27;;;;;;;10.38;5.10;;;;;;;;;;5093780;28;20044;-68
2023/06/13 01:13:13;;;;;;;9.90;5.28;;;;;;;;;;5093522;28;20044;-70
2023/06/13 01:15:43;;;;;;;8.38;4.93;;;;;;;;;;5093584;28;20056;-70
2023/06/13 01:18:11;;;;;;;9.65;5.35;;;;;;;;;;5076923;28;20059;-69
2023/06/13 01:20:37;;;;;;;13.02;5.80;;;;;;;;;;5093198;28;20367;-70
2023/06/13 01:23:07;;;;;;;12.88;5.63;;;;;;;;;;5076630;28;20123;-69
2023/06/13 01:25:52;;;;;;;8.88;5.57;;;;;;;;;;5095057;28;20056;-69
2023/06/13 01:28:20;;;;;;;11.40;5.40;;;;;;;;;;5093264;28;20052;-69
2023/06/13 01:30:47;;;;;;;14.20;5.63;;;;;;;;;;5094094;28;20126;-68
2023/06/13 01:33:13;;;;;;;;;;;;;;;;;;5095146;28;20122;-69
2023/06/13 01:35:39;;;;;;;11.30;5.55;;;;;;;;;;5076406;28;19967;-68
2023/06/13 01:38:06;;;;;;;12.68;6.32;;;;;;;;;;5076404;28;20100;-67
2023/06/13 01:40:32;;;;;;;17.13;6.30;;;;;;;;;;5093530;28;20040;-69
2023/06/13 01:42:58;;;;;;;11.57;5.83;;;;;;;;;;5094262;28;20047;-69
2023/06/13 01:45:25;;;;;;;15.57;6.60;;;;;;;;;;5093444;28;20056;-69
2023/06/13 01:47:51;;;;;;;;;;;;;;;;;;5093516;28;20055;-68
2023/06/13 01:50:17;;;;;;;15.00;6.05;;;;;;;;;;5076580;28;19927;-69
2023/06/13 01:53:02;;;;;;;14.52;6.00;;;;;;;;;;5093824;28;20063;-70
2023/06/13 01:55:49;;;;;;;10.65;5.80;;;;;;;;;;5092834;28;20138;-69
2023/06/13 01:58:27;;;;;;;14.48;6.00;;;;;;;;;;5092610;28;20169;-69
2023/06/13 02:00:57;;;;;;;12.20;6.20;;;;;;;;;;5076144;28;20044;-70
2023/06/13 02:03:24;;;;;;;9.98;5.85;;;;;;;;;;5093623;28;20048;-68
2023/06/13 02:05:50;;;;;;;10.73;6.05;;;;;;;;;;5092813;28;20044;-69
2023/06/13 02:08:16;;;;;;;12.25;6.35;;;;;;;;;;5093611;28;20048;-69
2023/06/13 02:10:43;;;;;;;12.63;5.97;;;;;;;;;;5092208;28;20059;-69
2023/06/13 02:13:09;;;;;;;12.57;6.57;;;;;;;;;;5093560;28;20644;-68
2023/06/13 02:15:35;;;;;;;10.80;6.10;;;;;;;;;;5092904;28;20101;-71
2023/06/13 02:18:02;;;;;;;12.83;6.43;;;;;;;;;;5092575;28;20126;-68
2023/06/13 02:20:28;;;;;;;10.68;5.93;;;;;;;;;;5092616;28;20087;-68
2023/06/13 02:22:56;;;;;;;9.93;5.77;;;;;;;;;;5092362;28;20044;-68
2023/06/13 02:25:22;;;;;;;11.55;6.20;;;;;;;;;;5092216;28;20072;-68
2023/06/13 02:27:48;;;;;;;13.05;6.28;;;;;;;;;;5075823;28;20105;-69
2023/06/13 02:30:14;;;;;;;11.83;5.83;;;;;;;;;;5075786;28;20446;-69
2023/06/13 02:32:41;;;;;;;11.23;6.25;;;;;;;;;;5075307;28;20310;-69
2023/06/13 02:35:10;;;;;;;14.90;6.38;;;;;;;;;;5075790;28;20048;-69
2023/06/13 02:37:37;;;;;;;10.20;6.10;;;;;;;;;;5075578;28;20051;-69
2023/06/13 02:40:05;;;;;;;11.73;5.80;;;;;;;;;;5092297;28;20071;-70
2023/06/13 02:42:32;;;;;;;12.77;6.28;;;;;;;;;;5092276;28;20040;-70
2023/06/13 02:44:58;;;;;;;12.35;6.18;;;;;;;;;;5092567;28;20131;-68
2023/06/13 02:47:24;;;;;;;10.67;5.67;;;;;;;;;;5076304;28;20436;-69
2023/06/13 02:49:50;;;;;;;12.07;6.10;;;;;;;;;;5092558;28;20059;-69
2023/06/13 02:52:16;;;;;;;13.63;6.27;;;;;;;;;;5075269;28;20379;-69
2023/06/13 02:54:43;;;;;;;12.00;6.25;;;;;;;;;;5093991;28;20282;-71
2023/06/13 02:57:11;;;;;;;11.55;6.43;;;;;;;;;;5092624;28;20056;-69
2023/06/13 02:59:37;;;;;;;13.13;6.25;;;;;;;;;;5091726;28;20131;-69
2023/06/13 03:02:03;;;;;;;12.98;6.70;;;;;;;;;;5075257;28;20044;-71
2023/06/13 03:04:31;;;;;;;10.37;6.20;;;;;;;;;;5093561;28;20439;-70
2023/06/13 03:06:57;;;;;;;10.63;5.78;;;;;;;;;;5091867;28;20286;-70
2023/06/13 03:09:23;;;;;;;13.98;6.10;;;;;;;;;;5075494;28;20056;-69
2023/06/13 03:11:49;;;;;;;13.93;6.30;;;;;;;;;;5092999;28;20044;-70
2023/06/13 03:14:16;;;;;;;15.30;6.37;;;;;;;;;;5091804;28;20048;-69
2023/06/13 03:16:42;;;;;;;;;;;;;;;;;;5092773;28;20470;-69
2023/06/13 03:19:08;;;;;;;12.35;6.30;;;;;;;;;;5109369;28;19927;-69
2023/06/13 03:21:35;;;;;;;13.13;6.45;;;;;;;;;;5092434;28;20040;-69
2023/06/13 03:24:01;;;;;;;14.30;6.47;;;;;;;;;;5075267;28;20044;-70
2023/06/13 03:26:28;;;;;;;9.85;6.13;;;;;;;;;;5058781;28;20509;-70
2023/06/13 03:28:54;;;;;;;11.02;6.13;;;;;;;;;;5091203;28;20088;-69
2023/06/13 03:31:22;;;;;;;12.15;6.60;;;;;;;;;;5091403;28;20074;-69
2023/06/13 03:33:48;;;;;;;13.25;6.05;;;;;;;;;;5092886;28;20443;-70
2023/06/13 03:36:14;;;;;;;13.47;6.43;;;;;;;;;;5092280;28;20052;-69
2023/06/13 03:38:41;;;;;;;12.03;5.90;;;;;;;;;;5075117;28;20044;-74
2023/06/13 03:41:07;;;;;;;12.33;6.37;;;;;;;;;;5091877;28;20318;-70
2023/06/13 03:43:33;;;;;;;9.20;5.93;;;;;;;;;;5075292;28;20286;-70
2023/06/13 03:46:00;;;;;;;11.27;6.13;;;;;;;;;;5095349;28;20055;-70
2023/06/13 03:48:26;;;;;;;11.13;5.97;;;;;;;;;;5095214;28;20055;-69
2023/06/13 03:50:52;;;;;;;13.63;5.97;;;;;;;;;;5078185;28;20052;-70
2023/06/13 03:53:18;;;;;;;12.53;5.73;;;;;;;;;;5095122;28;20080;-70
2023/06/13 03:55:44;;;;;;;11.03;5.97;;;;;;;;;;5095024;28;20063;-72
2023/06/13 03:58:11;;;;;;;14.05;5.70;;;;;;;;;;5095875;28;20479;-70
2023/06/13 04:00:39;;;;;;;13.77;5.93;;;;;;;;;;5096418;28;20077;-69
2023/06/13 04:03:07;;;;;;;10.98;5.93;;;;;;;;;;5095955;28;20096;-69
2023/06/13 04:05:34;;;;;;;11.75;6.13;;;;;;;;;;5094980;28;20059;-71
2023/06/13 04:08:01;;;;;;;13.15;5.93;;;;;;;;;;5095245;28;20413;-69
2023/06/13 04:10:27;;;;;;;10.43;6.03;;;;;;;;;;5095217;28;20392;-70
2023/06/13 04:12:53;;;;;;;11.75;5.95;;;;;;;;;;5096016;28;20048;-72
2023/06/13 04:15:20;;;;;;;14.73;6.87;;;;;;;;;;5078482;28;20051;-70
2023/06/13 04:17:46;;;;;;;11.65;5.80;;;;;;;;;;5094915;28;20079;-72
2023/06/13 04:20:16;;;;;;;11.93;6.20;;;;;;;;;;5077840;28;20059;-70
2023/06/13 04:22:44;;;;;;;10.65;5.65;;;;;;;;;;5095787;28;20051;-71
2023/06/13 04:25:10;;;;;;;13.32;5.90;;;;;;;;;;5094640;28;20055;-71
2023/06/13 04:27:38;;;;;;;11.57;5.57;;;;;;;;;;5080984;28;20436;-71
2023/06/13 04:30:05;;;;;;;10.63;5.90;;;;;;;;;;5099300;28;20458;-70
2023/06/13 04:32:34;;;;;;;13.35;5.90;;;;;;;;;;5064996;28;20043;-70
2023/06/13 04:35:00;;;;;;;12.05;5.93;;;;;;;;;;5081998;28;20051;-70
2023/06/13 04:37:26;;;;;;;10.57;5.73;;;;;;;;;;5081535;28;20047;-70
2023/06/13 04:39:52;;;;;;;13.35;5.72;;;;;;;;;;5098713;28;20052;-71
2023/06/13 04:42:28;;;;;;;12.90;5.90;;;;;;;;;;5099064;28;20046;-71
2023/06/13 04:44:58;;;;;;;13.43;5.97;;;;;;;;;;5098399;28;20359;-71
2023/06/13 04:47:25;;;;;;;14.30;6.18;;;;;;;;;;5098382;28;20101;-69
2023/06/13 04:50:00;;;;;;;13.02;6.15;;;;;;;;;;5097868;28;20140;-72
2023/06/13 04:52:33;;;;;;;9.77;5.57;;;;;;;;;;5097866;28;20130;-70
2023/06/13 04:55:01;;;;;;;11.25;5.60;;;;;;;;;;5115752;28;20088;-70
2023/06/13 04:57:27;;;;;;;10.80;5.60;;;;;;;;;;5097483;28;20051;-69
2023/06/13 04:59:54;;;;;;;10.13;5.35;;;;;;;;;;5097383;28;20054;-70
2023/06/13 05:02:20;;;;;;;10.50;5.65;;;;;;;;;;5097941;28;20049;-71
2023/06/13 05:04:47;;;;;;;12.40;5.87;;;;;;;;;;5117466;28;20074;-71
2023/06/13 05:07:15;;;;;;;13.68;5.80;;;;;;;;;;5117240;28;20055;-71
2023/06/13 05:09:42;;;;;;;11.05;5.80;;;;;;;;;;5081639;28;20093;-69
2023/06/13 05:12:08;;;;;;;10.70;5.60;;;;;;;;;;5081496;28;20108;-70
2023/06/13 05:14:35;;;;;;;10.93;5.55;;;;;;;;;;5097988;28;20546;-70
2023/06/13 05:17:05;;;;;;;14.00;6.05;;;;;;;;;;5098598;28;20051;-71
2023/06/13 05:19:31;;;;;;;12.73;5.95;;;;;;;;;;5082384;28;20055;-70
2023/06/13 05:22:02;;;;;;;15.98;6.10;;;;;;;;;;5097654;28;20087;-71
2023/06/13 05:24:28;;;;;;;12.13;5.75;;;;;;;;;;5097880;28;20385;-70
2023/06/13 05:26:54;;;;;;;12.35;5.57;;;;;;;;;;5079892;28;20047;-69
2023/06/13 05:29:20;;;;;;;11.77;5.80;;;;;;;;;;5073787;28;20059;-71
2023/06/13 05:31:48;;;;;;;11.10;5.73;;;;;;;;;;5057780;28;20294;-69
2023/06/13 05:34:14;;;;;;;12.13;5.45;;;;;;;;;;5074732;28;20059;-70
2023/06/13 05:36:40;;;;;;;13.40;5.63;;;;;;;;;;5074612;28;20052;-71
2023/06/13 05:39:09;;;;;;;11.53;5.47;;;;;;;;;;5073691;28;20047;-71
2023/06/13 05:41:36;;;;;;;12.27;4.80;;;;;;;;;;5073497;28;20036;-69
2023/06/13 05:44:02;;;;;;;11.88;5.15;;;;;;;;;;5057267;28;20401;-70
2023/06/13 05:46:28;;;;;;;15.68;5.40;;;;;;;;;;5057306;28;20052;-70
2023/06/13 05:48:54;;;;;;;10.50;5.03;;;;;;;;;;5056515;28;20406;-69
2023/06/13 05:51:20;;;;;;;10.33;5.10;;;;;;;;;;5056762;28;20040;-71
2023/06/13 05:53:47;;;;;;;8.05;4.65;;;;;;;;;;5056633;28;20291;-71
2023/06/13 05:56:13;;;;;;;8.70;4.72;;;;;;;;;;5057748;28;20193;-69
2023/06/13 05:58:39;;;;;;;10.77;5.17;;;;;;;;;;5056027;28;20047;-70
2023/06/13 06:01:05;;;;;;;9.10;5.17;;;;;;;;;;5073572;28;20051;-72
2023/06/13 06:03:31;;;;;;;12.27;4.50;;;;;;;;;;5040640;28;20290;-70
2023/06/13 06:05:58;;;;;;;9.80;4.65;;;;;;;;;;5073001;28;20126;-69
2023/06/13 06:08:24;;;;;;;11.50;5.07;;;;;;;;;;5074089;28;20119;-69
2023/06/13 06:10:50;;;;;;;10.32;4.43;;;;;;;;;;5056340;28;20052;-70
2023/06/13 06:13:16;;;;;;;12.90;4.77;;;;;;;;;;5074032;28;20049;-70
2023/06/13 06:15:42;;;;;;;8.73;4.70;;;;;;;;;;5073759;28;20127;-69
2023/06/13 06:18:08;;;;;;;9.02;4.82;;;;;;;;;;5056335;28;20083;-70
2023/06/13 06:20:34;;;;;;;12.13;4.90;;;;;;;;;;5073052;28;20093;-69
2023/06/13 06:23:01;;;;;;;11.30;5.10;;;;;;;;;;5072188;28;20490;-70
2023/06/13 06:25:27;;;;;;;11.30;4.80;;;;;;;;;;5055795;28;20299;-70
2023/06/13 06:27:54;;;;;;;9.93;4.67;;;;;;;;;;5083882;28;20047;-69
2023/06/13 06:30:21;;;;;;;12.05;4.60;;;;;;;;;;5095460;28;20327;-69
2023/06/13 06:32:47;;;;;;;11.10;4.70;;;;;;;;;;5078706;28;20044;-70
2023/06/13 06:35:16;;;;;;;11.30;4.82;;;;;;;;;;5078853;28;20048;-68
2023/06/13 06:37:43;;;;;;;11.77;5.05;;;;;;;;;;5062983;28;20044;-68
2023/06/13 06:40:10;;;;;;;9.05;4.55;;;;;;;;;;5113913;28;20043;-69
2023/06/13 06:42:36;;;;;;;12.02;4.78;;;;;;;;;;5095998;28;20138;-70
2023/06/13 06:45:02;;;;;;;14.15;5.28;;;;;;;;;;5095932;28;20140;-74
2023/06/13 06:47:29;;;;;;;15.52;4.82;;;;;;;;;;5096052;28;20101;-69
2023/06/13 06:49:55;;;;;;;7.60;4.53;;;;;;;;;;5062261;28;20078;-70
2023/06/13 06:52:21;;;;;;;13.25;5.13;;;;;;;;;;5078638;28;20039;-69
2023/06/13 06:54:47;;;;;;;8.88;4.57;;;;;;;;;;5113743;28;20039;-72
2023/06/13 06:57:14;;;;;;;16.40;5.00;;;;;;;;;;5078795;28;20087;-70
2023/06/13 06:59:40;;;;;;;11.10;4.63;;;;;;;;;;5097092;28;20040;-70
2023/06/13 07:02:06;;;;;;;10.73;4.80;;;;;;;;;;5096023;28;20047;-70
2023/06/13 07:04:32;;;;;;;11.25;4.50;;;;;;;;;;5096548;28;20407;-68
2023/06/13 07:06:58;;;;;;;7.20;4.60;;;;;;;;;;5095500;28;20040;-69
2023/06/13 07:09:24;;;;;;;9.32;4.90;;;;;;;;;;5078963;28;20043;-69
2023/06/13 07:11:53;;;;;;;10.50;4.88;;;;;;;;;;5096273;28;20042;-69
2023/06/13 07:14:19;;;;;;;11.40;4.80;;;;;;;;;;5062539;28;20047;-69
2023/06/13 07:16:46;;;;;;;8.63;4.70;;;;;;;;;;5095769;28;20052;-69
2023/06/13 07:19:12;;;;;;;12.65;4.60;;;;;;;;;;5115814;28;20168;-71
2023/06/13 07:21:38;;;;;;;10.65;4.55;;;;;;;;;;5099695;28;20051;-70
2023/06/13 07:24:04;;;;;;;10.43;4.82;;;;;;;;;;5099686;28;20128;-70
2023/06/13 07:26:30;;;;;;;11.30;4.50;;;;;;;;;;5099260;28;20102;-68
2023/06/13 07:28:56;;;;;;;8.63;4.90;;;;;;;;;;5117243;28;20066;-70
2023/06/13 07:31:23;;;;;;;12.25;5.05;;;;;;;;;;5117588;28;20131;-70
2023/06/13 07:33:50;;;;;;;8.40;4.18;;;;;;;;;;5083062;28;20075;-71
2023/06/13 07:36:16;;;;;;;8.77;4.35;;;;;;;;;;5099414;28;20047;-69
2023/06/13 07:38:43;;;;;;;9.13;4.28;;;;;;;;;;5099229;28;20052;-70
2023/06/13 07:41:11;;;;;;;12.75;5.28;;;;;;;;;;5065495;28;20075;-70
2023/06/13 07:43:37;;;;;;;11.60;5.00;;;;;;;;;;5082461;28;20073;-69
2023/06/13 07:46:04;;;;;;;8.32;4.97;;;;;;;;;;5066080;28;20386;-69
2023/06/13 07:48:30;;;;;;;14.98;4.38;;;;;;;;;;5098983;28;20052;-69
2023/06/13 07:50:56;;;;;;;10.93;5.45;;;;;;;;;;5099051;28;20047;-74
2023/06/13 07:53:22;;;;;;;13.10;5.40;;;;;;;;;;5098619;28;20043;-70
2023/06/13 07:55:49;;;;;;;9.70;4.97;;;;;;;;;;5098958;28;20043;-69
2023/06/13 07:58:15;;;;;;;10.32;4.90;;;;;;;;;;5098834;28;20047;-74
2023/06/13 08:00:41;;;;;;;10.80;5.28;;;;;;;;;;5117048;28;20126;-71
2023/06/13 08:03:07;;;;;;;10.07;5.50;;;;;;;;;;5081930;28;20044;-69
2023/06/13 08:05:34;;;;;;;12.27;5.70;;;;;;;;;;5098767;28;20059;-69
2023/06/13 08:08:00;;;;;;;9.77;5.25;;;;;;;;;;5098768;28;20047;-70
2023/06/13 08:10:26;;;;;;;11.13;5.78;;;;;;;;;;5081454;28;20062;-68
2023/06/13 08:12:52;;;;;;;13.18;5.35;;;;;;;;;;5064771;28;20089;-70
2023/06/13 08:15:18;;;;;;;13.27;5.32;;;;;;;;;;5116215;28;20047;-72
2023/06/13 08:17:45;;;;;;;12.48;5.53;;;;;;;;;;5098606;28;20105;-71
2023/06/13 08:20:11;;;;;;;11.48;5.72;;;;;;;;;;5098298;28;20062;-68
2023/06/13 08:22:38;;;;;;;11.15;5.80;;;;;;;;;;5098190;28;20108;-71
2023/06/13 08:25:07;;;;;;;15.82;5.43;;;;;;;;;;5098356;28;20055;-70
2023/06/13 08:27:35;;;;;;;10.68;5.75;;;;;;;;;;5115993;28;20057;-69
2023/06/13 08:30:03;;;;;;;9.27;5.03;;;;;;;;;;5098854;28;20051;-70
2023/06/13 08:32:29;;;;;;;9.40;5.22;;;;;;;;;;5098731;28;20093;-72
2023/06/13 08:34:55;;;;;;;13.02;5.43;;;;;;;;;;5116101;28;20528;-72
2023/06/13 08:37:21;;;;;;;13.40;5.55;;;;;;;;;;5098145;28;20073;-70
2023/06/13 08:39:47;;;;;;;11.15;5.63;;;;;;;;;;5097989;28;20048;-71
2023/06/13 08:42:13;;;;;;;8.40;5.45;;;;;;;;;;5098821;28;20047;-70
2023/06/13 08:44:43;;;;;;;10.75;5.28;;;;;;;;;;5115847;28;20047;-70
2023/06/13 08:47:10;;;;;;;15.45;5.88;;;;;;;;;;5097601;28;20082;-70
2023/06/13 08:49:36;;;;;;;11.98;5.43;;;;;;;;;;5098439;28;20051;-70
2023/06/13 08:52:07;;;;;;;14.02;5.38;;;;;;;;;;5081179;28;20424;-70
2023/06/13 08:54:36;;;;;;;10.73;5.07;;;;;;;;;;5098123;28;20138;-70
2023/06/13 08:57:04;;;;;;;12.07;5.10;;;;;;;;;;5080560;28;20051;-71
2023/06/13 08:59:33;;;;;;;12.48;5.63;;;;;;;;;;5080589;28;20051;-72
2023/06/13 09:01:59;;;;;;;10.10;5.60;;;;;;;;;;5080785;28;20040;-69
2023/06/13 09:04:28;;;;;;;8.98;5.35;;;;;;;;;;5097044;28;20176;-70
2023/06/13 09:06:57;;;;;;;8.20;5.10;;;;;;;;;;5097570;28;20058;-72
2023/06/13 09:09:27;;;;;;;10.07;5.15;;;;;;;;;;5097233;28;20492;-75
2023/06/13 09:11:55;;;;;;;10.63;5.47;;;;;;;;;;5097380;28;20126;-68
2023/06/13 09:14:22;;;;;;;13.90;5.45;;;;;;;;;;5097355;28;20051;-71
2023/06/13 09:16:48;;;;;;;;;;;;;;;;;;5081748;28;20450;-72
2023/06/13 09:19:14;;;;;;;9.40;5.25;;;;;;;;;;5096992;28;19923;-70
2023/06/13 09:21:40;;;;;;;10.20;4.72;;;;;;;;;;5080882;28;20074;-70
2023/06/13 09:24:07;;;;;;;12.40;5.03;;;;;;;;;;5115431;28;20051;-70
2023/06/13 09:26:33;;;;;;;15.18;5.45;;;;;;;;;;5096918;28;20075;-69
2023/06/13 09:29:00;;;;;;;14.85;5.32;;;;;;;;;;5079702;28;20477;-71
2023/06/13 09:31:29;;;;;;;10.98;5.20;;;;;;;;;;5114906;28;20504;-69
2023/06/13 09:34:00;;;;;;;12.13;5.30;;;;;;;;;;5097606;28;20046;-70
2023/06/13 09:36:27;;;;;;;8.85;4.72;;;;;;;;;;5114845;28;20370;-71
2023/06/13 09:38:56;;;;;;;12.13;5.15;;;;;;;;;;5096912;28;20040;-71
2023/06/13 09:41:24;;;;;;;13.18;5.22;;;;;;;;;;5095694;28;20080;-69
2023/06/13 09:43:54;;;;;;;12.15;5.22;;;;;;;;;;5097260;28;20135;-70
2023/06/13 09:46:23;;;;;;;18.15;5.32;;;;;;;;;;5079232;28;20055;-69
2023/06/13 09:48:50;;;;;;;8.40;4.63;;;;;;;;;;5097193;28;20095;-68
2023/06/13 09:51:16;;;;;;;;;;;;;;;;;;5114733;28;20043;-70
2023/06/13 09:53:47;;;;;;;10.30;5.00;;;;;;;;;;5096327;28;20052;-71
2023/06/13 09:56:13;;;;;;;7.90;4.70;;;;;;;;;;5114315;28;20055;-71
2023/06/13 09:58:40;;;;;;;11.48;4.82;;;;;;;;;;5114221;28;20144;-70
2023/06/13 10:01:12;;;;;;;11.57;5.00;;;;;;;;;;5096957;28;20077;-70
2023/06/13 10:03:38;;;;;;;11.25;5.18;;;;;;;;;;5097040;28;20048;-71
2023/06/13 10:06:04;;;;;;;15.50;4.78;;;;;;;;;;5096817;28;20055;-73
2023/06/13 10:08:31;;;;;;;12.90;4.90;;;;;;;;;;5095927;28;20134;-69
2023/06/13 10:10:59;;;;;;;12.68;4.65;;;;;;;;;;5080421;28;20055;-71
2023/06/13 10:13:26;;;;;;;11.98;5.20;;;;;;;;;;5096092;28;20078;-72
2023/06/13 10:15:54;;;;;;;12.43;4.60;;;;;;;;;;5095821;28;20105;-74
2023/06/13 10:18:21;;;;;;;9.05;4.40;;;;;;;;;;5095926;28;20051;-71
2023/06/13 10:20:50;;;;;;;9.52;4.47;;;;;;;;;;5095812;28;20044;-70
2023/06/13 10:23:18;;;;;;;9.52;4.53;;;;;;;;;;5114015;28;20039;-74
2023/06/13 10:25:48;;;;;;;8.68;4.65;;;;;;;;;;5113927;28;20047;-70
2023/06/13 10:28:28;;;;;;;16.52;5.00;;;;;;;;;;5113804;28;20060;-70
2023/06/13 10:31:04;;;;;;;12.32;4.40;;;;;;;;;;5096801;28;20108;-70
2023/06/13 10:33:50;;;;;;;10.50;4.50;;;;;;;;;;5079696;28;20432;-67
2023/06/13 10:36:20;;;;;;;11.93;5.05;;;;;;;;;;5094720;28;20281;-70
2023/06/13 10:38:59;;;;;;;9.48;4.88;;;;;;;;;;5079225;28;20500;-69
2023/06/13 10:41:43;;;;;;;12.13;4.93;;;;;;;;;;5095636;28;20138;-70
2023/06/13 10:44:18;;;;;;;11.20;4.50;;;;;;;;;;5096492;28;20427;-69
2023/06/13 10:46:45;;;;;;;16.77;5.40;;;;;;;;;;5114081;28;20481;-70
2023/06/13 10:49:15;;;;;;;9.05;5.57;;;;;;;;;;5095460;28;20477;-69
2023/06/13 10:51:43;;;;;;;12.13;5.60;;;;;;;;;;5094959;28;20493;-69
2023/06/13 10:54:11;;;;;;;9.57;5.10;;;;;;;;;;5099564;28;20047;-73
2023/06/13 10:56:39;;;;;;;12.35;5.03;;;;;;;;;;5117037;28;20059;-69
2023/06/13 10:59:06;;;;;;;10.55;5.25;;;;;;;;;;5066494;28;20100;-71
2023/06/13 11:01:33;;;;;;;13.05;5.05;;;;;;;;;;5100011;28;20126;-70
2023/06/13 11:04:11;;;;;;;10.82;4.82;;;;;;;;;;5082212;28;20527;-71
2023/06/13 11:06:38;;;;;;;8.80;5.20;;;;;;;;;;5099806;28;20079;-70
2023/06/13 11:09:09;;;;;;;10.77;5.30;;;;;;;;;;5082829;28;20039;-68
2023/06/13 11:11:54;;;;;;;11.00;4.97;;;;;;;;;;5082658;28;20138;-69
2023/06/13 11:14:33;;;;;;;13.25;5.38;;;;;;;;;;5083140;28;20070;-73
2023/06/13 11:17:02;;;;;;;13.93;5.60;;;;;;;;;;5099133;28;20048;-71
2023/06/13 11:19:28;;;;;;;10.93;4.95;;;;;;;;;;5118009;28;20357;-72
2023/06/13 11:21:54;;;;;;;;;;;;;;;;;;5118113;28;20469;-70
2023/06/13 11:24:21;;;;;;;16.20;5.57;;;;;;;;;;5118294;28;19953;-69
2023/06/13 11:26:47;;;;;;;9.65;4.90;;;;;;;;;;5117333;28;20099;-70
2023/06/13 11:29:14;;;;;;;9.45;5.00;;;;;;;;;;5082154;28;20134;-70
2023/06/13 11:31:41;;;;;;;8.48;4.53;;;;;;;;;;5099067;28;20136;-70
2023/06/13 11:34:17;;;;;;;11.65;5.75;;;;;;;;;;5117116;28;20047;-70
2023/06/13 11:36:44;;;;;;;11.55;5.55;;;;;;;;;;5099038;28;20053;-74
2023/06/13 11:39:11;;;;;;;15.88;5.97;;;;;;;;;;5117635;28;20100;-71
2023/06/13 11:41:38;;;;;;;13.93;5.68;;;;;;;;;;5098932;28;20091;-71
2023/06/13 11:44:04;;;;;;;10.90;5.60;;;;;;;;;;5082020;28;20043;-70
2023/06/13 11:46:30;;;;;;;10.68;5.40;;;;;;;;;;5099001;28;20047;-69
2023/06/13 11:48:57;;;;;;;11.85;5.20;;;;;;;;;;5082123;28;20548;-69
2023/06/13 11:51:24;;;;;;;8.95;4.68;;;;;;;;;;5098808;28;20048;-68
2023/06/13 11:53:50;;;;;;;;;;;;;;;;;;5082624;28;20046;-70
2023/06/13 11:56:17;;;;;;;13.27;5.70;;;;;;;;;;5115949;28;20246;-71
2023/06/13 11:58:45;;;;;;;11.07;5.50;;;;;;;;;;5082126;28;20051;-70
2023/06/13 12:01:16;;;;;;;11.60;5.65;;;;;;;;;;5065614;28;20495;-72
2023/06/13 12:03:46;;;;;;;11.43;5.40;;;;;;;;;;5082452;28;20048;-71
2023/06/13 12:06:12;;;;;;;11.07;5.60;;;;;;;;;;5081244;28;20052;-71
2023/06/13 12:08:45;;;;;;;11.50;5.75;;;;;;;;;;5098514;28;20039;-70
2023/06/13 12:11:11;;;;;;;11.50;5.85;;;;;;;;;;5098756;28;20044;-70
2023/06/13 12:13:38;;;;;;;12.77;5.22;;;;;;;;;;5098130;28;20044;-76
2023/06/13 12:16:04;;;;;;;13.77;5.50;;;;;;;;;;5081444;28;20055;-73
2023/06/13 12:18:31;;;;;;;12.05;5.95;;;;;;;;;;5098213;28;20043;-71
2023/06/13 12:20:57;;;;;;;12.25;5.55;;;;;;;;;;5082161;28;20052;-70
2023/06/13 12:23:24;;;;;;;9.10;5.75;;;;;;;;;;5115864;28;20489;-69
2023/06/13 12:25:51;;;;;;;12.95;5.50;;;;;;;;;;5081131;28;20449;-72
2023/06/13 12:28:18;;;;;;;;;;;;;;;;;;5081325;28;20481;-70
2023/06/13 12:30:45;;;;;;;11.90;5.40;;;;;;;;;;5098127;28;20415;-70
2023/06/13 12:33:18;;;;;;;10.30;5.88;;;;;;;;;;5115909;28;20077;-70
2023/06/13 12:35:55;;;;;;;12.60;5.35;;;;;;;;;;5116559;28;20059;-69
2023/06/13 12:38:28;;;;;;;13.30;5.47;;;;;;;;;;5097851;28;20390;-70
2023/06/13 12:40:54;;;;;;;12.60;5.55;;;;;;;;;;5098614;28;20073;-70
2023/06/13 12:43:26;;;;;;;10.30;5.38;;;;;;;;;;5115767;28;20035;-69
2023/06/13 12:45:55;;;;;;;11.93;5.95;;;;;;;;;;5115688;28;20048;-72
2023/06/13 12:48:21;;;;;;;12.65;6.18;;;;;;;;;;5097372;28;20073;-72
2023/06/13 12:50:49;;;;;;;14.07;6.55;;;;;;;;;;5080642;28;20039;-72
2023/06/13 12:53:22;;;;;;;13.70;5.97;;;;;;;;;;5116138;28;20411;-70
2023/06/13 12:55:48;;;;;;;12.48;5.38;;;;;;;;;;5097369;28;20050;-72
2023/06/13 12:58:27;;;;;;;11.90;5.38;;;;;;;;;;5097278;28;20055;-70
2023/06/13 13:00:53;;;;;;;11.20;5.80;;;;;;;;;;5097095;28;20080;-75
2023/06/13 13:03:20;;;;;;;12.98;5.88;;;;;;;;;;5080395;28;20048;-71
2023/06/13 13:05:49;;;;;;;16.92;6.45;;;;;;;;;;5080057;28;20492;-71
2023/06/13 13:08:15;;;;;;;15.70;6.88;;;;;;;;;;5097045;28;20058;-72
2023/06/13 13:10:41;;;;;;;15.60;6.15;;;;;;;;;;5115192;28;20048;-73
2023/06/13 13:13:07;;;;;;;13.90;6.38;;;;;;;;;;5114971;28;20058;-71
2023/06/13 13:15:34;;;;;;;15.93;6.05;;;;;;;;;;5062675;28;20067;-71
2023/06/13 13:18:00;;;;;;;15.27;6.28;;;;;;;;;;5096118;28;20062;-70
2023/06/13 13:20:26;;;;;;;13.18;5.47;;;;;;;;;;5080353;28;20047;-70
2023/06/13 13:22:52;;;;;;;13.85;5.80;;;;;;;;;;5080007;28;20089;-69
2023/06/13 13:25:18;;;;;;;12.52;6.30;;;;;;;;;;5115381;28;20488;-70
2023/06/13 13:27:46;;;;;;;10.90;6.05;;;;;;;;;;5114842;28;20044;-71
2023/06/13 13:30:13;;;;;;;12.50;6.25;;;;;;;;;;5092703;28;20052;-70
2023/06/13 13:32:39;;;;;;;12.23;6.07;;;;;;;;;;5093090;28;20051;-71
2023/06/13 13:35:06;;;;;;;14.07;6.43;;;;;;;;;;5059952;28;20500;-69
2023/06/13 13:37:32;;;;;;;11.05;6.10;;;;;;;;;;5093054;28;20055;-71
2023/06/13 13:39:58;;;;;;;;;;;;;;;;;;5093622;28;20098;-77
2023/06/13 13:42:24;;;;;;;;;;;;;;;;;;5110398;28;19962;-71
2023/06/13 13:44:50;;;;;;;;;;;;;;;;;;5094471;28;20011;-68
2023/06/13 13:47:16;;;;;;;;;;;;;;;;;;5110847;28;19924;-69
2023/06/13 13:49:49;;;;;;;11.13;6.00;;;;;;;;;;5089006;27;20405;-70
2023/06/13 13:52:15;;;;;;;;;;;;;;;;;;5082924;28;20060;-71
2023/06/13 13:54:42;;;;;;;;;;;;;;;;;;5069172;28;19924;-71
2023/06/13 13:57:08;;;;;;;13.75;6.50;;;;;;;;;;5068619;28;19921;-72
2023/06/13 13:59:35;;;;;;;11.77;6.22;;;;;;;;;;5070435;28;20056;-71
2023/06/13 14:02:01;;;;;;;14.43;6.68;;;;;;;;;;5066174;28;20041;-77
2023/06/13 14:04:29;;;;;;;15.30;5.93;;;;;;;;;;5069926;28;20045;-72
2023/06/13 14:06:55;;;;;;;12.55;5.82;;;;;;;;;;5069548;28;20048;-70
2023/06/13 14:09:21;;;;;;;12.95;6.10;;;;;;;;;;5068172;28;20045;-70
2023/06/13 14:11:48;;;;;;;10.43;5.68;;;;;;;;;;5079892;28;20507;-71
2023/06/13 14:14:14;;;;;;;13.73;6.10;;;;;;;;;;5088249;28;20048;-72
2023/06/13 14:16:40;;;;;;;12.82;6.15;;;;;;;;;;5077692;28;20045;-70
2023/06/13 14:19:06;;;;;;;13.23;6.30;;;;;;;;;;5067925;28;20044;-72
2023/06/13 14:21:32;;;;;;;12.13;5.97;;;;;;;;;;5074611;28;20086;-73
2023/06/13 14:23:58;;;;;;;15.70;6.47;;;;;;;;;;5082807;28;20048;-70
2023/06/13 14:26:27;;;;;;;15.73;6.25;;;;;;;;;;5081064;28;20048;-72
2023/06/13 14:28:53;;;;;;;15.30;6.30;;;;;;;;;;5089507;28;20044;-71
2023/06/13 14:31:20;;;;;;;10.57;6.00;;;;;;;;;;5088270;28;20048;-70
2023/06/13 14:33:48;;;;;;;;;;;;;;;;;;5075202;28;20493;-70
2023/06/13 14:36:14;;;;;;;21.33;6.20;;;;;;;;;;5068327;28;19974;-71
2023/06/13 14:38:42;;;;;;;13.60;6.22;;;;;;;;;;5069132;28;20167;-70
2023/06/13 14:41:08;;;;;;;12.73;6.25;;;;;;;;;;5068288;28;20052;-69